createdAt,value
2018-11-13T00:03:02.819Z,6.50
2018-11-13T00:05:31.805Z,6.50
2018-11-13T00:08:00.816Z,6.60
2018-11-13T00:10:31.413Z,6.80
2018-11-13T01:02:57.405Z,6.40
2018-11-13T01:05:26.518Z,6.40
2018-11-13T01:07:55.491Z,6.50
2018-11-13T02:02:53.610Z,6.30
2018-11-13T02:05:23.715Z,6.40
2018-11-13T02:07:53.437Z,6.50
2018-11-13T03:02:44.396Z,6.50
2018-11-13T03:05:14.631Z,6.60
2018-11-13T03:07:44.034Z,6.70
2018-11-13T03:10:15.735Z,6.80
2018-11-13T04:03:17.094Z,6.80
2018-11-13T04:05:46.069Z,6.80
2018-11-13T04:08:15.042Z,6.90
2018-11-13T05:02:40.944Z,6.80
2018-11-13T05:05:11.056Z,6.80
2018-11-13T05:07:40.169Z,6.80
2018-11-13T06:02:51.675Z,6.70
2018-11-13T06:05:20.687Z,6.70
2018-11-13T06:07:50.021Z,6.80
2018-11-13T06:10:21.350Z,6.90
2018-11-13T07:02:46.397Z,6.90
2018-11-13T07:05:16.680Z,6.90
2018-11-13T07:07:46.549Z,7.00
2018-11-13T08:02:50.365Z,7.60
2018-11-13T08:05:19.467Z,7.70
2018-11-13T08:07:48.446Z,7.80
2018-11-13T09:02:57.390Z,8.50
2018-11-13T09:05:26.421Z,8.50
2018-11-13T09:07:55.430Z,8.70
2018-11-13T10:02:57.939Z,9.50
2018-11-13T10:05:26.915Z,9.50
2018-11-13T10:07:56.954Z,9.60
2018-11-13T11:02:58.439Z,10.30
2018-11-13T11:05:28.257Z,10.40
2018-11-13T11:07:58.178Z,10.70
2018-11-13T12:02:42.509Z,10.20
2018-11-13T12:05:11.960Z,10.10
2018-11-13T12:07:40.957Z,10.10
2018-11-13T12:10:13.357Z,10.30
2018-11-13T13:02:44.633Z,9.10
2018-11-13T13:05:14.135Z,9.10
2018-11-13T13:07:43.149Z,9.20
2018-11-13T13:10:14.985Z,9.20
2018-11-13T14:02:46.583Z,9.00
2018-11-13T14:05:16.118Z,9.00
2018-11-13T14:07:45.135Z,9.10
2018-11-13T15:02:41.269Z,8.60
2018-11-13T15:05:12.846Z,8.60
2018-11-13T15:07:43.915Z,8.70
2018-11-13T16:02:39.477Z,8.40
2018-11-13T16:05:22.468Z,8.50
2018-11-13T16:07:56.841Z,8.70
2018-11-13T17:02:42.486Z,8.70
2018-11-13T17:05:13.153Z,8.70
2018-11-13T17:07:42.740Z,8.80
2018-11-13T18:02:41.622Z,8.70
2018-11-13T18:05:11.498Z,8.80
2018-11-13T18:07:40.521Z,8.90
2018-11-13T18:10:12.066Z,9.00
2018-11-13T19:02:53.906Z,8.50
2018-11-13T19:05:23.422Z,8.50
2018-11-13T19:07:52.523Z,8.60
2018-11-13T20:02:51.927Z,8.50
2018-11-13T20:05:21.210Z,8.60
2018-11-13T20:07:50.209Z,8.70
2018-11-13T20:10:22.361Z,8.80
2018-11-13T21:02:59.681Z,8.90
2018-11-13T21:05:28.695Z,8.90
2018-11-13T21:07:57.713Z,9.10
2018-11-13T22:02:58.941Z,8.50
2018-11-13T22:05:29.433Z,9.30
2018-11-13T22:07:58.784Z,9.30
2018-11-13T22:10:29.253Z,9.40
2018-11-13T23:02:47.289Z,8.40
2018-11-13T23:05:16.550Z,8.50
2018-11-13T23:07:45.583Z,8.60
